SBI7520 UTAA-ZMUB
Flight info
| Callsign | SBI7520 |
|---|---|
| Flight time | N/A |
| Altitude | 37000 |
| Route | UTAA N0448F370 BUR11D BUROT B114 ABDAN R433 AGNAN GENGA N143 GOMIR R366 NOPUS Y787 DUKIM UDA BATSU D333P CI14 FI14 RW14 ZMUB |
| Aircraft | B738/M-SDGIWZ/S |
Departure
| Time | 2026-05-05 09:41 |
|---|---|
| Airport | Ashgabat International Airport (UTAA) |
Arrival
| Time | N/A |
|---|---|
| Airport | Buyant-Ukhaa International Airport (ZMUB) |
| Time | Latitude | Longitude | Altitude | Speed | Heading |
|---|---|---|---|---|---|
| 2026-05-05 09:20 | 37.96720 | 58.37338 | 699 ft | 0 kts | 127° |
| 2026-05-05 09:31 | 37.96723 | 58.37334 | 699 ft | 1 kts | 127° |
| 2026-05-05 09:31 | 37.96737 | 58.37312 | 699 ft | 4 kts | 127° |
| 2026-05-05 09:32 | 37.96762 | 58.37278 | 699 ft | 5 kts | 174° |
| 2026-05-05 09:32 | 37.96790 | 58.37295 | 699 ft | 1 kts | 214° |
| 2026-05-05 09:32 | 37.96766 | 58.37273 | 699 ft | 8 kts | 217° |
| 2026-05-05 09:32 | 37.96701 | 58.37241 | 699 ft | 13 kts | 149° |
| 2026-05-05 09:33 | 37.96632 | 58.37344 | 699 ft | 15 kts | 124° |
| 2026-05-05 09:33 | 37.96665 | 58.37440 | 699 ft | 12 kts | 37° |
| 2026-05-05 09:33 | 37.96727 | 58.37501 | 699 ft | 10 kts | 39° |
| 2026-05-05 09:33 | 37.96782 | 58.37535 | 699 ft | 8 kts | 358° |
| 2026-05-05 09:34 | 37.96857 | 58.37511 | 699 ft | 16 kts | 340° |
| 2026-05-05 09:34 | 37.97002 | 58.37450 | 699 ft | 26 kts | 342° |
| 2026-05-05 09:34 | 37.97151 | 58.37339 | 699 ft | 24 kts | 323° |
| 2026-05-05 09:34 | 37.97288 | 58.37314 | 699 ft | 19 kts | 25° |
| 2026-05-05 09:35 | 37.97415 | 58.37407 | 699 ft | 22 kts | 32° |
| 2026-05-05 09:35 | 37.97614 | 58.37221 | 699 ft | 21 kts | 299° |
| 2026-05-05 09:35 | 37.97691 | 58.37048 | 699 ft | 23 kts | 299° |
| 2026-05-05 09:36 | 37.97779 | 58.36851 | 699 ft | 27 kts | 299° |
| 2026-05-05 09:36 | 37.97875 | 58.36635 | 699 ft | 30 kts | 299° |
| 2026-05-05 09:36 | 37.97981 | 58.36396 | 699 ft | 30 kts | 299° |
| 2026-05-05 09:36 | 37.98080 | 58.36176 | 699 ft | 27 kts | 299° |
| 2026-05-05 09:37 | 37.98168 | 58.35979 | 699 ft | 24 kts | 299° |
| 2026-05-05 09:37 | 37.98247 | 58.35802 | 699 ft | 21 kts | 299° |
| 2026-05-05 09:37 | 37.98318 | 58.35641 | 699 ft | 19 kts | 299° |
| 2026-05-05 09:37 | 37.98387 | 58.35487 | 699 ft | 23 kts | 299° |
| 2026-05-05 09:38 | 37.98485 | 58.35268 | 699 ft | 34 kts | 299° |
| 2026-05-05 09:38 | 37.98611 | 58.34985 | 699 ft | 36 kts | 299° |
| 2026-05-05 09:38 | 37.98728 | 58.34723 | 699 ft | 32 kts | 299° |
| 2026-05-05 09:38 | 37.98832 | 58.34488 | 699 ft | 29 kts | 299° |
| 2026-05-05 09:39 | 37.98931 | 58.34266 | 699 ft | 29 kts | 299° |
| 2026-05-05 09:39 | 37.99029 | 58.34048 | 699 ft | 27 kts | 300° |
| 2026-05-05 09:39 | 37.99124 | 58.33852 | 699 ft | 25 kts | 303° |
| 2026-05-05 09:39 | 37.99101 | 58.33693 | 699 ft | 18 kts | 218° |
| 2026-05-05 09:40 | 37.99001 | 58.33623 | 699 ft | 14 kts | 175° |
| 2026-05-05 09:40 | 37.98871 | 58.33851 | 699 ft | 65 kts | 118° |
| 2026-05-05 09:40 | 37.98541 | 58.34596 | 699 ft | 126 kts | 118° |
| 2026-05-05 09:40 | 37.98034 | 58.35735 | 700 ft | 172 kts | 118° |
| 2026-05-05 09:41 | 37.97387 | 58.37129 | 958 ft | 193 kts | 119° |
| 2026-05-05 09:41 | 37.96659 | 58.38685 | 1296 ft | 217 kts | 116° |
| 2026-05-05 09:41 | 37.96114 | 58.40381 | 2250 ft | 206 kts | 100° |
| 2026-05-05 09:41 | 37.96232 | 58.42207 | 2618 ft | 221 kts | 65° |
| 2026-05-05 09:42 | 37.97332 | 58.43657 | 2791 ft | 245 kts | 27° |
| 2026-05-05 09:42 | 37.99032 | 58.43991 | 3193 ft | 256 kts | 354° |
| 2026-05-05 09:42 | 38.00766 | 58.43727 | 3887 ft | 254 kts | 360° |
| 2026-05-05 09:42 | 38.02500 | 58.44279 | 4183 ft | 267 kts | 35° |
| 2026-05-05 09:43 | 38.03674 | 58.46027 | 4889 ft | 263 kts | 67° |
| 2026-05-05 09:43 | 38.04399 | 58.48222 | 5364 ft | 276 kts | 65° |
| 2026-05-05 09:43 | 38.05428 | 58.50260 | 6013 ft | 283 kts | 54° |
| 2026-05-05 09:43 | 38.06657 | 58.52245 | 6586 ft | 291 kts | 53° |
| 2026-05-05 09:44 | 38.07925 | 58.54268 | 7247 ft | 294 kts | 53° |
| 2026-05-05 09:44 | 38.09188 | 58.56251 | 7986 ft | 294 kts | 52° |
| 2026-05-05 09:44 | 38.10493 | 58.58286 | 8490 ft | 302 kts | 51° |
| 2026-05-05 09:44 | 38.11823 | 58.60365 | 9096 ft | 306 kts | 51° |
| 2026-05-05 09:45 | 38.13169 | 58.62454 | 9740 ft | 307 kts | 51° |
| 2026-05-05 09:45 | 38.14531 | 58.64563 | 10201 ft | 316 kts | 50° |
| 2026-05-05 09:45 | 38.15972 | 58.66803 | 10264 ft | 337 kts | 51° |
| 2026-05-05 09:45 | 38.17498 | 58.69169 | 10377 ft | 356 kts | 51° |
| 2026-05-05 09:46 | 38.19111 | 58.71661 | 10430 ft | 375 kts | 51° |
| 2026-05-05 09:46 | 38.20784 | 58.74248 | 10764 ft | 384 kts | 51° |
| 2026-05-05 09:46 | 38.22484 | 58.76877 | 11138 ft | 391 kts | 51° |
| 2026-05-05 09:46 | 38.24228 | 58.79575 | 11697 ft | 392 kts | 50° |
| 2026-05-05 09:47 | 38.25950 | 58.82238 | 12146 ft | 396 kts | 50° |
| 2026-05-05 09:47 | 38.27711 | 58.84963 | 12626 ft | 398 kts | 50° |
| 2026-05-05 09:47 | 38.29454 | 58.87660 | 13097 ft | 400 kts | 50° |
| 2026-05-05 09:47 | 38.31227 | 58.90400 | 13537 ft | 403 kts | 50° |
| 2026-05-05 09:48 | 38.33015 | 58.93165 | 13978 ft | 406 kts | 50° |
| 2026-05-05 09:48 | 38.34801 | 58.95927 | 14396 ft | 408 kts | 50° |
| 2026-05-05 09:48 | 38.36614 | 58.98729 | 14810 ft | 410 kts | 50° |
| 2026-05-05 09:48 | 38.38428 | 59.01530 | 15202 ft | 413 kts | 50° |
| 2026-05-05 09:49 | 38.40248 | 59.04342 | 15591 ft | 415 kts | 49° |
| 2026-05-05 09:49 | 38.42090 | 59.07186 | 15972 ft | 418 kts | 49° |
| 2026-05-05 09:49 | 38.43959 | 59.10070 | 16335 ft | 420 kts | 49° |
| 2026-05-05 09:49 | 38.45816 | 59.12935 | 16691 ft | 422 kts | 49° |
| 2026-05-05 09:50 | 38.47684 | 59.15818 | 17034 ft | 425 kts | 49° |
| 2026-05-05 09:50 | 38.49506 | 59.18756 | 17366 ft | 427 kts | 52° |
| 2026-05-05 09:50 | 38.51248 | 59.21876 | 17703 ft | 429 kts | 54° |
| 2026-05-05 09:50 | 38.52963 | 59.24978 | 18026 ft | 431 kts | 53° |
| 2026-05-05 09:51 | 38.54712 | 59.28082 | 18337 ft | 433 kts | 53° |
| 2026-05-05 09:51 | 38.56473 | 59.31194 | 18635 ft | 436 kts | 53° |
| 2026-05-05 09:51 | 38.58264 | 59.34367 | 18938 ft | 438 kts | 53° |
| 2026-05-05 09:51 | 38.60053 | 59.37510 | 19221 ft | 440 kts | 51° |
| 2026-05-05 09:52 | 38.61950 | 59.40506 | 19501 ft | 441 kts | 47° |
| 2026-05-05 09:52 | 38.63967 | 59.43502 | 19805 ft | 442 kts | 47° |
| 2026-05-05 09:52 | 38.65953 | 59.46492 | 20055 ft | 445 kts | 48° |
| 2026-05-05 09:52 | 38.67929 | 59.49510 | 20319 ft | 446 kts | 48° |
| 2026-05-05 09:53 | 38.69923 | 59.52559 | 20597 ft | 448 kts | 48° |
| 2026-05-05 09:53 | 38.71917 | 59.55609 | 20826 ft | 450 kts | 48° |
| 2026-05-05 09:53 | 38.73931 | 59.58695 | 21090 ft | 451 kts | 48° |
| 2026-05-05 09:53 | 38.75928 | 59.61762 | 21328 ft | 453 kts | 48° |
| 2026-05-05 09:54 | 38.77958 | 59.64882 | 21565 ft | 454 kts | 48° |
| 2026-05-05 09:54 | 38.79967 | 59.67974 | 21795 ft | 456 kts | 49° |
| 2026-05-05 09:54 | 38.82004 | 59.71114 | 22002 ft | 458 kts | 49° |
| 2026-05-05 09:54 | 38.84038 | 59.74252 | 22231 ft | 459 kts | 49° |
| 2026-05-05 09:55 | 38.86061 | 59.77377 | 22417 ft | 461 kts | 49° |
| 2026-05-05 09:55 | 38.88115 | 59.80553 | 22633 ft | 462 kts | 49° |
| 2026-05-05 09:55 | 38.90147 | 59.83699 | 22831 ft | 463 kts | 49° |
| 2026-05-05 09:55 | 38.92216 | 59.86905 | 23008 ft | 465 kts | 48° |
| 2026-05-05 09:56 | 38.94287 | 59.90116 | 23155 ft | 468 kts | 48° |
| 2026-05-05 09:56 | 38.96354 | 59.93326 | 23397 ft | 467 kts | 48° |
| 2026-05-05 09:56 | 38.98408 | 59.96521 | 23597 ft | 468 kts | 47° |
| 2026-05-05 09:56 | 39.00483 | 59.99749 | 23770 ft | 470 kts | 47° |
| 2026-05-05 09:57 | 39.02550 | 60.02968 | 23948 ft | 471 kts | 47° |
| 2026-05-05 09:57 | 39.04662 | 60.06260 | 24106 ft | 473 kts | 47° |
| 2026-05-05 09:57 | 39.06724 | 60.09480 | 24276 ft | 474 kts | 47° |
| 2026-05-05 09:57 | 39.08819 | 60.12753 | 24445 ft | 475 kts | 47° |
| 2026-05-05 09:58 | 39.10922 | 60.16043 | 24618 ft | 476 kts | 47° |
| 2026-05-05 09:58 | 39.13019 | 60.19325 | 24797 ft | 477 kts | 47° |
| 2026-05-05 09:58 | 39.15124 | 60.22624 | 24922 ft | 478 kts | 47° |
| 2026-05-05 09:58 | 39.17247 | 60.25955 | 25101 ft | 479 kts | 47° |
| 2026-05-05 09:59 | 39.19333 | 60.29232 | 25252 ft | 480 kts | 47° |
| 2026-05-05 09:59 | 39.21463 | 60.32579 | 25369 ft | 482 kts | 47° |
| 2026-05-05 09:59 | 39.23560 | 60.35880 | 25534 ft | 482 kts | 47° |
| 2026-05-05 09:59 | 39.25703 | 60.39257 | 25690 ft | 483 kts | 47° |
| 2026-05-05 10:00 | 39.27829 | 60.42610 | 25804 ft | 484 kts | 47° |
| 2026-05-05 10:00 | 39.29953 | 60.45963 | 25972 ft | 485 kts | 47° |
| 2026-05-05 10:00 | 39.32074 | 60.49316 | 26105 ft | 486 kts | 47° |
| 2026-05-05 10:00 | 39.34217 | 60.52705 | 26196 ft | 487 kts | 47° |
| 2026-05-05 10:01 | 39.36343 | 60.56072 | 26383 ft | 487 kts | 47° |
| 2026-05-05 10:01 | 39.38470 | 60.59446 | 26462 ft | 489 kts | 46° |
| 2026-05-05 10:01 | 39.40615 | 60.62853 | 26593 ft | 489 kts | 47° |
| 2026-05-05 10:01 | 39.42753 | 60.66253 | 26743 ft | 489 kts | 47° |
| 2026-05-05 10:02 | 39.44914 | 60.69692 | 26819 ft | 491 kts | 47° |
| 2026-05-05 10:02 | 39.47066 | 60.73112 | 26964 ft | 491 kts | 47° |
| 2026-05-05 10:02 | 39.49204 | 60.76508 | 27033 ft | 492 kts | 47° |
| 2026-05-05 10:02 | 39.51360 | 60.79931 | 27132 ft | 493 kts | 47° |
| 2026-05-05 10:03 | 39.53516 | 60.83371 | 27259 ft | 493 kts | 47° |
| 2026-05-05 10:03 | 39.55669 | 60.86835 | 27334 ft | 494 kts | 47° |
| 2026-05-05 10:03 | 39.57814 | 60.90293 | 27442 ft | 495 kts | 47° |
| 2026-05-05 10:03 | 39.59988 | 60.93789 | 27531 ft | 495 kts | 47° |
| 2026-05-05 10:04 | 39.62143 | 60.97239 | 27631 ft | 496 kts | 47° |
| 2026-05-05 10:04 | 39.64296 | 61.00679 | 27710 ft | 496 kts | 47° |
| 2026-05-05 10:04 | 39.66480 | 61.04181 | 27809 ft | 497 kts | 47° |
| 2026-05-05 10:04 | 39.68644 | 61.07667 | 27888 ft | 498 kts | 48° |
| 2026-05-05 10:05 | 39.70789 | 61.11143 | 27998 ft | 498 kts | 48° |
| 2026-05-05 10:05 | 39.72944 | 61.14646 | 28196 ft | 495 kts | 48° |
| 2026-05-05 10:05 | 39.75085 | 61.18121 | 28400 ft | 493 kts | 48° |
| 2026-05-05 10:05 | 39.77229 | 61.21581 | 28476 ft | 494 kts | 48° |
| 2026-05-05 10:06 | 39.81554 | 61.28532 | 28746 ft | 493 kts | 48° |
| 2026-05-05 10:06 | 39.83670 | 61.31953 | 28873 ft | 492 kts | 48° |
| 2026-05-05 10:06 | 39.85815 | 61.35447 | 28957 ft | 493 kts | 48° |
| 2026-05-05 10:07 | 39.90069 | 61.42395 | 29134 ft | 494 kts | 48° |
| 2026-05-05 10:07 | 39.92204 | 61.45878 | 29252 ft | 493 kts | 48° |
| 2026-05-05 10:07 | 39.94351 | 61.49380 | 29363 ft | 493 kts | 48° |
| 2026-05-05 10:08 | 39.98616 | 61.56360 | 29557 ft | 493 kts | 48° |
| 2026-05-05 10:08 | 40.00728 | 61.59838 | 29692 ft | 493 kts | 48° |
| 2026-05-05 10:08 | 40.02852 | 61.63353 | 29782 ft | 493 kts | 48° |
| 2026-05-05 10:09 | 40.04953 | 61.66827 | 29894 ft | 492 kts | 49° |
| 2026-05-05 10:09 | 40.07094 | 61.70356 | 30002 ft | 492 kts | 49° |
| 2026-05-05 10:09 | 40.11337 | 61.77342 | 30209 ft | 491 kts | 49° |
| 2026-05-05 10:10 | 40.15580 | 61.84297 | 30388 ft | 491 kts | 48° |
| 2026-05-05 10:10 | 40.19825 | 61.91240 | 30532 ft | 491 kts | 49° |
| 2026-05-05 10:11 | 40.24028 | 61.98235 | 30725 ft | 491 kts | 49° |
| 2026-05-05 10:11 | 40.28240 | 62.05268 | 30914 ft | 490 kts | 49° |
| 2026-05-05 10:12 | 40.30328 | 62.08752 | 31015 ft | 490 kts | 49° |
| 2026-05-05 10:12 | 40.32414 | 62.12233 | 31099 ft | 490 kts | 49° |
| 2026-05-05 10:12 | 40.36620 | 62.19258 | 31270 ft | 489 kts | 48° |
| 2026-05-05 10:13 | 40.40595 | 62.26458 | 31460 ft | 491 kts | 54° |
| 2026-05-05 10:13 | 40.42388 | 62.30242 | 31565 ft | 491 kts | 55° |
| 2026-05-05 10:13 | 40.44214 | 62.34048 | 31657 ft | 490 kts | 54° |
| 2026-05-05 10:14 | 40.47895 | 62.41534 | 31847 ft | 489 kts | 54° |
| 2026-05-05 10:14 | 40.51570 | 62.48999 | 32014 ft | 489 kts | 54° |
| 2026-05-05 10:15 | 40.55257 | 62.56535 | 32166 ft | 489 kts | 54° |
| 2026-05-05 10:15 | 40.58888 | 62.63983 | 32402 ft | 487 kts | 54° |
| 2026-05-05 10:16 | 40.62533 | 62.71508 | 32547 ft | 487 kts | 54° |
| 2026-05-05 10:16 | 40.66130 | 62.79024 | 32685 ft | 487 kts | 55° |
| 2026-05-05 10:17 | 40.69705 | 62.86525 | 32832 ft | 486 kts | 54° |
| 2026-05-05 10:17 | 40.73324 | 62.94027 | 32962 ft | 485 kts | 54° |
| 2026-05-05 10:18 | 40.76970 | 63.01531 | 33091 ft | 485 kts | 54° |
| 2026-05-05 10:18 | 40.80558 | 63.09006 | 33219 ft | 485 kts | 54° |
| 2026-05-05 10:19 | 40.84145 | 63.16513 | 33378 ft | 484 kts | 55° |
| 2026-05-05 10:19 | 40.87720 | 63.24056 | 33531 ft | 483 kts | 54° |
| 2026-05-05 10:20 | 40.88897 | 63.26536 | 33578 ft | 483 kts | 54° |